Uliastai, Mongolia
Current Conditions -  °F | °C
As of 8:00 AM on Saturday 20 Dec 2014 (Local Time) from UIII Reporting Station
Clear Clear  
Wind Chill: -8°   Ceiling: Unl
Heat Index:   Visibility: 6mi
Dew Point: -2°   Wind: 4mph
Humidity: 85%   Direction: 100°E
Pressure: 30.39"   Gusts: NA
Location:  47.75°N, 96.85°E
Report Text: UIII 200000Z 10002MPS CAVOK M17/M19 Q1029 NOSIG RMK QFE729/097212850350
Loading
Personal Weather Stations






























Interactive Weather Map New forecast layout! Learn more

10-Day Weather Forecast

Advertisements
Track Severe Weather on mobile